Sakaide Maru — 3EYR6 — position and weather

sailwx.info

Track history (hours):
 
Tides and Currents Weather Stations Pressure Air Temp Water Temp Dewpoint Dewpoint Depression Visibility Wind Speed Wind Dir Waves Ship Positions

Sakaide Maru

Last reported at 2014-Dec-18 15:33 UTC. Time now 2014-Dec-18 16:25 UTC.
Position N 49°01' W 123°16'.

Length 255 m; draft 6.9 m.

Type: Cargo ship. MMSI: 354898000.

Date/timePositionNaut miles runAvg speedWind from/ knotsBaromVisibWave heightAir tempDewpointWater temp
2014-Dec-18 15:33N 49°01' W 123°16'1514.7
2014-Dec-18 14:33N 48°51' W 123°01'1211.5
2014-Dec-18 13:33N 48°42' W 123°13'1313.2
2014-Dec-18 12:34N 48°29' W 123°10'1111.0
2014-Dec-18 11:33N 48°22' W 123°23'8 8.3
2014-Dec-18 10:33N 48°15' W 123°28'8 8.1
2014-Dec-18 09:33N 48°13' W 123°40'9 8.9
2014-Dec-18 08:33N 48°13' W 123°54'1111.2
2014-Dec-18 07:33N 48°18' W 124°09'1111.5
2014-Dec-18 06:33N 48°23' W 124°25'1212.5
2014-Dec-18 05:33N 48°28' W 124°42'1312.6
2014-Dec-18 04:33N 48°29' W 125°01'1312.9
2014-Dec-18 03:33N 48°29' W 125°20'1212.4
2014-Dec-18 02:33N 48°29' W 125°39'1211.9
2014-Dec-18 01:33N 48°29' W 125°57'1212.3
2014-Dec-18 00:34N 48°30' W 126°15'1312.5
2014-Dec-17 23:32N 48°30' W 126°35'  
Track history (hours):
 
Tides and Currents Weather Stations Pressure Air Temp Water Temp Dewpoint Dewpoint Depression Visibility Wind Speed Wind Dir Waves Ship Positions

Sakaide Maru

Last reported at 2014-Dec-18 15:33 UTC. Time now 2014-Dec-18 16:25 UTC.
Position N 49°01' W 123°16'.

Length 255 m; draft 6.9 m.

Type: Cargo ship. MMSI: 354898000.

Date/timePositionNaut miles runAvg speedWind from/ knotsBaromVisibWave heightAir tempDewpointWater temp
2014-Dec-18 15:33N 49°01' W 123°16'1514.7
2014-Dec-18 14:33N 48°51' W 123°01'1211.5
2014-Dec-18 13:33N 48°42' W 123°13'1313.2
2014-Dec-18 12:34N 48°29' W 123°10'1111.0
2014-Dec-18 11:33N 48°22' W 123°23'8 8.3
2014-Dec-18 10:33N 48°15' W 123°28'8 8.1
2014-Dec-18 09:33N 48°13' W 123°40'9 8.9
2014-Dec-18 08:33N 48°13' W 123°54'1111.2
2014-Dec-18 07:33N 48°18' W 124°09'1111.5
2014-Dec-18 06:33N 48°23' W 124°25'1212.5
2014-Dec-18 05:33N 48°28' W 124°42'1312.6
2014-Dec-18 04:33N 48°29' W 125°01'1312.9
2014-Dec-18 03:33N 48°29' W 125°20'1212.4
2014-Dec-18 02:33N 48°29' W 125°39'1211.9
2014-Dec-18 01:33N 48°29' W 125°57'1212.3
2014-Dec-18 00:34N 48°30' W 126°15'1312.5
2014-Dec-17 23:32N 48°30' W 126°35'  

Dump ship's entire track history